sensor_id;sensor_type;location;lat;lon;timestamp;pressure;altitude;pressure_sealevel;temperature;humidity
43844;BME280;29497;48.046;7.864;2022-10-31T00:00:09;99726.81;;;20.65;65.25
43844;BME280;29497;48.046;7.864;2022-10-31T00:02:37;99722.50;;;20.64;65.17
43844;BME280;29497;48.046;7.864;2022-10-31T00:05:04;99724.16;;;20.65;65.10
43844;BME280;29497;48.046;7.864;2022-10-31T00:07:30;99727.78;;;20.64;65.12
43844;BME280;29497;48.046;7.864;2022-10-31T00:09:58;99723.31;;;20.65;64.89
43844;BME280;29497;48.046;7.864;2022-10-31T00:12:25;99730.41;;;20.64;65.21
43844;BME280;29497;48.046;7.864;2022-10-31T00:14:52;99730.41;;;20.64;65.11
43844;BME280;29497;48.046;7.864;2022-10-31T00:17:18;99720.84;;;20.63;65.15
43844;BME280;29497;48.046;7.864;2022-10-31T00:19:45;99736.66;;;20.63;64.89
43844;BME280;29497;48.046;7.864;2022-10-31T00:22:11;99735.00;;;20.62;65.28
43844;BME280;29497;48.046;7.864;2022-10-31T00:24:38;99729.72;;;20.62;64.91
43844;BME280;29497;48.046;7.864;2022-10-31T00:27:06;99729.72;;;20.62;65.22
43844;BME280;29497;48.046;7.864;2022-10-31T00:29:32;99726.09;;;20.63;65.06
43844;BME280;29497;48.046;7.864;2022-10-31T00:31:59;99724.44;;;20.62;64.74
43844;BME280;29497;48.046;7.864;2022-10-31T00:34:25;99728.88;;;20.62;65.04
43844;BME280;29497;48.046;7.864;2022-10-31T00:36:52;99724.44;;;20.62;65.27
43844;BME280;29497;48.046;7.864;2022-10-31T00:39:18;99729.72;;;20.62;64.99
43844;BME280;29497;48.046;7.864;2022-10-31T00:41:45;99722.78;;;20.61;65.18
43844;BME280;29497;48.046;7.864;2022-10-31T00:44:12;99719.44;;;20.59;64.97
43844;BME280;29497;48.046;7.864;2022-10-31T00:46:39;99724.59;;;20.61;65.41
43844;BME280;29497;48.046;7.864;2022-10-31T00:49:05;99725.56;;;20.60;65.16
43844;BME280;29497;48.046;7.864;2022-10-31T00:51:32;99731.66;;;20.60;65.20
43844;BME280;29497;48.046;7.864;2022-10-31T00:53:58;99724.72;;;20.59;65.09
43844;BME280;29497;48.046;7.864;2022-10-31T00:56:25;99733.47;;;20.60;65.13
43844;BME280;29497;48.046;7.864;2022-10-31T00:58:51;99730.00;;;20.59;65.03
43844;BME280;29497;48.046;7.864;2022-10-31T01:01:20;99732.66;;;20.59;65.02
43844;BME280;29497;48.046;7.864;2022-10-31T01:03:46;99728.50;;;20.57;65.06
43844;BME280;29497;48.046;7.864;2022-10-31T01:06:13;99728.34;;;20.58;65.10
43844;BME280;29497;48.046;7.864;2022-10-31T01:08:41;99722.91;;;20.60;65.28
43844;BME280;29497;48.046;7.864;2022-10-31T01:11:11;99726.53;;;20.59;65.20
43844;BME280;29497;48.046;7.864;2022-10-31T01:13:39;99728.34;;;20.58;64.80
43844;BME280;29497;48.046;7.864;2022-10-31T01:16:07;99725.69;;;20.58;64.99
43844;BME280;29497;48.046;7.864;2022-10-31T01:18:35;99725.03;;;20.56;65.15
43844;BME280;29497;48.046;7.864;2022-10-31T01:21:04;99724.03;;;20.57;64.96
43844;BME280;29497;48.046;7.864;2022-10-31T01:23:32;99728.34;;;20.58;65.02
43844;BME280;29497;48.046;7.864;2022-10-31T01:26:05;99719.75;;;20.56;64.98
43844;BME280;29497;48.046;7.864;2022-10-31T01:28:32;99721.38;;;20.57;65.08
43844;BME280;29497;48.046;7.864;2022-10-31T01:31:00;99727.69;;;20.56;65.06
43844;BME280;29497;48.046;7.864;2022-10-31T01:33:27;99719.75;;;20.56;64.96
43844;BME280;29497;48.046;7.864;2022-10-31T01:35:55;99720.72;;;20.55;65.05
43844;BME280;29497;48.046;7.864;2022-10-31T01:38:22;99720.72;;;20.55;64.92
43844;BME280;29497;48.046;7.864;2022-10-31T01:40:49;99725.03;;;20.56;64.99
43844;BME280;29497;48.046;7.864;2022-10-31T01:43:15;99720.72;;;20.55;64.90
43844;BME280;29497;48.046;7.864;2022-10-31T01:45:44;99722.53;;;20.55;64.68
43844;BME280;29497;48.046;7.864;2022-10-31T01:48:14;99718.09;;;20.55;65.11
43844;BME280;29497;48.046;7.864;2022-10-31T01:50:42;99716.41;;;20.54;64.92
43844;BME280;29497;48.046;7.864;2022-10-31T01:53:12;99718.09;;;20.55;65.02
43844;BME280;29497;48.046;7.864;2022-10-31T01:55:40;99717.25;;;20.55;64.80
43844;BME280;29497;48.046;7.864;2022-10-31T01:58:11;99705.88;;;20.54;65.08
43844;BME280;29497;48.046;7.864;2022-10-31T02:00:41;99707.81;;;20.52;65.06
43844;BME280;29497;48.046;7.864;2022-10-31T02:03:09;99704.19;;;20.53;64.99
43844;BME280;29497;48.046;7.864;2022-10-31T02:05:36;99706.84;;;20.53;64.83
43844;BME280;29497;48.046;7.864;2022-10-31T02:08:05;99712.25;;;20.52;64.95
43844;BME280;29497;48.046;7.864;2022-10-31T02:10:36;99710.44;;;20.52;65.03
43844;BME280;29497;48.046;7.864;2022-10-31T02:13:04;99706.97;;;20.52;64.76
43844;BME280;29497;48.046;7.864;2022-10-31T02:15:32;99711.56;;;20.50;64.89
43844;BME280;29497;48.046;7.864;2022-10-31T02:17:59;99704.47;;;20.50;64.92
43844;BME280;29497;48.046;7.864;2022-10-31T02:20:31;99705.31;;;20.51;64.90
43844;BME280;29497;48.046;7.864;2022-10-31T02:26:21;99697.53;;;20.49;65.19
43844;BME280;29497;48.046;7.864;2022-10-31T02:29:08;99692.25;;;20.49;64.99
43844;BME280;29497;48.046;7.864;2022-10-31T02:31:42;99693.94;;;20.50;64.88
43844;BME280;29497;48.046;7.864;2022-10-31T02:34:17;99682.53;;;20.50;64.84
43844;BME280;29497;48.046;7.864;2022-10-31T02:36:50;99686.00;;;20.50;64.90
43844;BME280;29497;48.046;7.864;2022-10-31T02:39:22;99686.84;;;20.51;64.86
43844;BME280;29497;48.046;7.864;2022-10-31T02:41:54;99680.72;;;20.50;64.75
43844;BME280;29497;48.046;7.864;2022-10-31T02:44:29;99681.69;;;20.49;65.10
43844;BME280;29497;48.046;7.864;2022-10-31T02:47:03;99686.97;;;20.49;64.81
43844;BME280;29497;48.046;7.864;2022-10-31T02:49:34;99686.00;;;20.50;64.94
43844;BME280;29497;48.046;7.864;2022-10-31T02:52:13;99679.06;;;20.49;64.91
43844;BME280;29497;48.046;7.864;2022-10-31T02:54:40;99679.91;;;20.50;64.92
43844;BME280;29497;48.046;7.864;2022-10-31T02:57:07;99679.06;;;20.49;64.61
43844;BME280;29497;48.046;7.864;2022-10-31T02:59:35;99674.75;;;20.48;64.82
43844;BME280;29497;48.046;7.864;2022-10-31T03:02:24;99673.13;;;20.47;64.85
43844;BME280;29497;48.046;7.864;2022-10-31T03:05:09;99677.56;;;20.47;64.93
43844;BME280;29497;48.046;7.864;2022-10-31T03:07:42;99678.41;;;20.47;64.85
43844;BME280;29497;48.046;7.864;2022-10-31T03:10:17;99668.81;;;20.46;64.93
43844;BME280;29497;48.046;7.864;2022-10-31T03:12:50;99673.13;;;20.47;64.66
43844;BME280;29497;48.046;7.864;2022-10-31T03:15:23;99664.38;;;20.47;64.62
43844;BME280;29497;48.046;7.864;2022-10-31T03:17:56;99666.19;;;20.46;64.42
43844;BME280;29497;48.046;7.864;2022-10-31T03:20:29;99658.41;;;20.45;64.73
43844;BME280;29497;48.046;7.864;2022-10-31T03:22:57;99659.25;;;20.45;64.78
43844;BME280;29497;48.046;7.864;2022-10-31T03:25:25;99653.97;;;20.45;64.72
43844;BME280;29497;48.046;7.864;2022-10-31T03:27:53;99656.88;;;20.42;65.00
43844;BME280;29497;48.046;7.864;2022-10-31T03:30:21;99664.81;;;20.42;64.83
43844;BME280;29497;48.046;7.864;2022-10-31T03:32:51;99664.81;;;20.42;64.79
43844;BME280;29497;48.046;7.864;2022-10-31T03:35:23;99666.47;;;20.43;64.92
43844;BME280;29497;48.046;7.864;2022-10-31T03:37:52;99658.56;;;20.43;64.68
43844;BME280;29497;48.046;7.864;2022-10-31T03:40:21;99659.53;;;20.42;64.50
43844;BME280;29497;48.046;7.864;2022-10-31T03:42:52;99654.25;;;20.42;64.67
43844;BME280;29497;48.046;7.864;2022-10-31T03:45:23;99658.69;;;20.42;64.73
43844;BME280;29497;48.046;7.864;2022-10-31T03:47:51;99661.47;;;20.40;64.81
43844;BME280;29497;48.046;7.864;2022-10-31T03:50:21;99659.81;;;20.39;64.65
43844;BME280;29497;48.046;7.864;2022-10-31T03:52:49;99657.16;;;20.39;64.59
43844;BME280;29497;48.046;7.864;2022-10-31T03:55:19;99659.81;;;20.39;64.94
43844;BME280;29497;48.046;7.864;2022-10-31T03:57:51;99654.53;;;20.39;64.87
43844;BME280;29497;48.046;7.864;2022-10-31T04:00:20;99659.81;;;20.39;65.00
43844;BME280;29497;48.046;7.864;2022-10-31T04:02:51;99665.09;;;20.39;64.79
43844;BME280;29497;48.046;7.864;2022-10-31T04:05:21;99664.25;;;20.38;64.54
43844;BME280;29497;48.046;7.864;2022-10-31T04:07:52;99663.41;;;20.38;64.68
43844;BME280;29497;48.046;7.864;2022-10-31T04:10:21;99662.75;;;20.36;64.75
43844;BME280;29497;48.046;7.864;2022-10-31T04:12:52;99661.78;;;20.37;64.59
43844;BME280;29497;48.046;7.864;2022-10-31T04:15:20;99661.78;;;20.37;64.65
43844;BME280;29497;48.046;7.864;2022-10-31T04:17:50;99660.13;;;20.36;64.56
43844;BME280;29497;48.046;7.864;2022-10-31T04:20:18;99664.41;;;20.37;64.69
43844;BME280;29497;48.046;7.864;2022-10-31T04:22:56;99664.56;;;20.35;64.71
43844;BME280;29497;48.046;7.864;2022-10-31T04:25:23;99667.19;;;20.35;64.87
43844;BME280;29497;48.046;7.864;2022-10-31T04:27:49;99661.09;;;20.35;64.65
43844;BME280;29497;48.046;7.864;2022-10-31T04:30:16;99651.47;;;20.34;64.52
43844;BME280;29497;48.046;7.864;2022-10-31T04:32:42;99651.47;;;20.34;64.77
43844;BME280;29497;48.046;7.864;2022-10-31T04:35:09;99653.16;;;20.35;64.76
43844;BME280;29497;48.046;7.864;2022-10-31T04:37:35;99648.84;;;20.34;64.75
43844;BME280;29497;48.046;7.864;2022-10-31T04:40:04;99648.16;;;20.32;64.72
43844;BME280;29497;48.046;7.864;2022-10-31T04:42:31;99648.16;;;20.32;64.78
43844;BME280;29497;48.046;7.864;2022-10-31T04:44:57;99648.16;;;20.32;64.71
43844;BME280;29497;48.046;7.864;2022-10-31T04:47:24;99649.13;;;20.31;64.47
43844;BME280;29497;48.046;7.864;2022-10-31T04:49:50;99652.59;;;20.31;64.54
43844;BME280;29497;48.046;7.864;2022-10-31T04:52:17;99652.59;;;20.31;64.60
43844;BME280;29497;48.046;7.864;2022-10-31T04:54:43;99647.31;;;20.31;64.69
43844;BME280;29497;48.046;7.864;2022-10-31T04:57:11;99650.09;;;20.30;64.86
43844;BME280;29497;48.046;7.864;2022-10-31T04:59:38;99651.75;;;20.31;64.69
43844;BME280;29497;48.046;7.864;2022-10-31T05:02:04;99655.38;;;20.30;64.75
43844;BME280;29497;48.046;7.864;2022-10-31T05:04:30;99648.16;;;20.32;64.60
43844;BME280;29497;48.046;7.864;2022-10-31T05:06:57;99656.06;;;20.32;64.51
43844;BME280;29497;48.046;7.864;2022-10-31T05:09:23;99642.88;;;20.32;64.55
43844;BME280;29497;48.046;7.864;2022-10-31T05:11:50;99644.81;;;20.30;64.50
43844;BME280;29497;48.046;7.864;2022-10-31T05:14:18;99639.84;;;20.27;64.67
43844;BME280;29497;48.046;7.864;2022-10-31T05:16:44;99645.97;;;20.27;64.83
43844;BME280;29497;48.046;7.864;2022-10-31T05:19:11;99644.28;;;20.26;64.61
43844;BME280;29497;48.046;7.864;2022-10-31T05:21:37;99643.47;;;20.26;64.83
43844;BME280;29497;48.046;7.864;2022-10-31T05:24:04;99639.84;;;20.27;64.75
43844;BME280;29497;48.046;7.864;2022-10-31T05:26:31;99651.50;;;20.24;64.65
43844;BME280;29497;48.046;7.864;2022-10-31T05:28:57;99640.13;;;20.24;64.81
43844;BME280;29497;48.046;7.864;2022-10-31T05:31:26;99634.03;;;20.23;64.74
43844;BME280;29497;48.046;7.864;2022-10-31T05:33:53;99637.50;;;20.24;64.50
43844;BME280;29497;48.046;7.864;2022-10-31T05:36:19;99640.13;;;20.24;64.67
43844;BME280;29497;48.046;7.864;2022-10-31T05:38:46;99642.06;;;20.22;64.87
43844;BME280;29497;48.046;7.864;2022-10-31T05:41:13;99643.75;;;20.23;64.62
43844;BME280;29497;48.046;7.864;2022-10-31T05:43:39;99646.38;;;20.23;64.59
43844;BME280;29497;48.046;7.864;2022-10-31T05:46:06;99637.78;;;20.21;64.88
43844;BME280;29497;48.046;7.864;2022-10-31T05:48:33;99640.41;;;20.21;64.64
43844;BME280;29497;48.046;7.864;2022-10-31T05:51:00;99642.75;;;20.24;64.62
43844;BME280;29497;48.046;7.864;2022-10-31T05:53:26;99635.69;;;20.24;64.49
43844;BME280;29497;48.046;7.864;2022-10-31T05:55:53;99639.28;;;20.23;64.83
43844;BME280;29497;48.046;7.864;2022-10-31T05:58:19;99643.75;;;20.23;64.72
43844;BME280;29497;48.046;7.864;2022-10-31T06:00:46;99645.69;;;20.21;64.78
43844;BME280;29497;48.046;7.864;2022-10-31T06:03:12;99633.47;;;20.20;64.51
43844;BME280;29497;48.046;7.864;2022-10-31T06:05:40;99635.13;;;20.21;64.71
43844;BME280;29497;48.046;7.864;2022-10-31T06:08:07;99629.84;;;20.21;64.60
43844;BME280;29497;48.046;7.864;2022-10-31T06:10:33;99636.09;;;20.20;64.56
43844;BME280;29497;48.046;7.864;2022-10-31T06:13:00;99633.47;;;20.20;64.97
43844;BME280;29497;48.046;7.864;2022-10-31T06:15:26;99635.28;;;20.19;64.78
43844;BME280;29497;48.046;7.864;2022-10-31T06:18:00;99639.44;;;20.22;64.96
43844;BME280;29497;48.046;7.864;2022-10-31T06:20:27;99634.16;;;20.22;64.82
43844;BME280;29497;48.046;7.864;2022-10-31T06:22:55;99631.53;;;20.22;64.68
43844;BME280;29497;48.046;7.864;2022-10-31T06:25:21;99623.47;;;20.23;64.94
43844;BME280;29497;48.046;7.864;2022-10-31T06:27:48;99620.00;;;20.23;64.67
43844;BME280;29497;48.046;7.864;2022-10-31T06:30:14;99620.69;;;20.25;64.71
43844;BME280;29497;48.046;7.864;2022-10-31T06:32:41;99625.00;;;20.26;64.62
43844;BME280;29497;48.046;7.864;2022-10-31T06:35:08;99629.56;;;20.24;64.36
43844;BME280;29497;48.046;7.864;2022-10-31T06:37:35;99636.53;;;20.25;64.61
43844;BME280;29497;48.046;7.864;2022-10-31T06:40:03;99627.63;;;20.26;64.44
43844;BME280;29497;48.046;7.864;2022-10-31T06:42:30;99626.66;;;20.27;64.61
43844;BME280;29497;48.046;7.864;2022-10-31T06:44:56;99630.97;;;20.28;64.64
43844;BME280;29497;48.046;7.864;2022-10-31T06:47:23;99630.13;;;20.27;64.31
43844;BME280;29497;48.046;7.864;2022-10-31T06:49:49;99632.91;;;20.26;64.45
43844;BME280;29497;48.046;7.864;2022-10-31T06:52:16;99632.91;;;20.26;64.44
43844;BME280;29497;48.046;7.864;2022-10-31T06:54:42;99632.91;;;20.26;64.54
43844;BME280;29497;48.046;7.864;2022-10-31T06:57:10;99633.59;;;20.28;64.58
43844;BME280;29497;48.046;7.864;2022-10-31T06:59:37;99639.84;;;20.27;64.45
43844;BME280;29497;48.046;7.864;2022-10-31T07:02:03;99637.22;;;20.27;64.40
43844;BME280;29497;48.046;7.864;2022-10-31T07:04:30;99639.84;;;20.27;64.60
43844;BME280;29497;48.046;7.864;2022-10-31T07:06:56;99647.06;;;20.25;64.63
43844;BME280;29497;48.046;7.864;2022-10-31T07:09:23;99641.78;;;20.25;64.78
43844;BME280;29497;48.046;7.864;2022-10-31T07:11:51;99650.41;;;20.27;64.94
43844;BME280;29497;48.046;7.864;2022-10-31T07:14:19;99646.78;;;20.28;64.80
43844;BME280;29497;48.046;7.864;2022-10-31T07:16:48;99651.06;;;20.29;64.78
43844;BME280;29497;48.046;7.864;2022-10-31T07:19:15;99658.00;;;20.30;65.07
43844;BME280;29497;48.046;7.864;2022-10-31T07:21:41;99654.53;;;20.29;65.15
43844;BME280;29497;48.046;7.864;2022-10-31T07:24:08;99654.53;;;20.29;65.17
43844;BME280;29497;48.046;7.864;2022-10-31T07:26:34;99651.75;;;20.31;65.04
43844;BME280;29497;48.046;7.864;2022-10-31T07:29:01;99653.03;;;20.27;65.14
43844;BME280;29497;48.046;7.864;2022-10-31T07:31:29;99656.66;;;20.26;64.34
43844;BME280;29497;48.046;7.864;2022-10-31T07:33:55;99663.41;;;20.28;65.09
43844;BME280;29497;48.046;7.864;2022-10-31T07:36:22;99658.16;;;20.28;65.27
43844;BME280;29497;48.046;7.864;2022-10-31T07:38:49;99662.63;;;20.28;65.35
43844;BME280;29497;48.046;7.864;2022-10-31T07:41:16;99662.63;;;20.28;65.61
43844;BME280;29497;48.046;7.864;2022-10-31T07:43:42;99662.63;;;20.28;65.41
43844;BME280;29497;48.046;7.864;2022-10-31T07:46:09;99656.34;;;20.29;65.66
43844;BME280;29497;48.046;7.864;2022-10-31T07:48:37;99656.34;;;20.29;65.61
43844;BME280;29497;48.046;7.864;2022-10-31T07:51:04;99660.50;;;20.31;65.88
43844;BME280;29497;48.046;7.864;2022-10-31T07:53:32;99664.13;;;20.30;65.59
43844;BME280;29497;48.046;7.864;2022-10-31T07:55:58;99667.59;;;20.31;65.51
43844;BME280;29497;48.046;7.864;2022-10-31T07:58:25;99664.94;;;20.31;65.88
43844;BME280;29497;48.046;7.864;2022-10-31T08:00:51;99666.88;;;20.29;65.54
43844;BME280;29497;48.046;7.864;2022-10-31T08:03:18;99668.41;;;20.31;65.95
43844;BME280;29497;48.046;7.864;2022-10-31T08:05:46;99665.63;;;20.33;65.74
43844;BME280;29497;48.046;7.864;2022-10-31T08:08:14;99663.97;;;20.32;65.94
43844;BME280;29497;48.046;7.864;2022-10-31T08:10:41;99665.63;;;20.33;65.60
43844;BME280;29497;48.046;7.864;2022-10-31T08:13:09;99669.53;;;20.29;65.30
43844;BME280;29497;48.046;7.864;2022-10-31T08:15:36;99670.09;;;20.32;65.76
43844;BME280;29497;48.046;7.864;2022-10-31T08:18:05;99678.81;;;20.33;65.57
43844;BME280;29497;48.046;7.864;2022-10-31T08:20:32;99673.69;;;20.31;65.61
43844;BME280;29497;48.046;7.864;2022-10-31T08:23:02;99670.22;;;20.31;64.59
43844;BME280;29497;48.046;7.864;2022-10-31T08:25:30;99670.91;;;20.33;64.89
43844;BME280;29497;48.046;7.864;2022-10-31T08:27:57;99672.59;;;20.34;65.41
43844;BME280;29497;48.046;7.864;2022-10-31T08:30:25;99666.47;;;20.33;65.11
43844;BME280;29497;48.046;7.864;2022-10-31T08:33:00;99665.38;;;20.36;63.64
43844;BME280;29497;48.046;7.864;2022-10-31T08:35:26;99670.66;;;20.36;62.98
43844;BME280;29497;48.046;7.864;2022-10-31T08:37:53;99656.75;;;20.34;62.28
43844;BME280;29497;48.046;7.864;2022-10-31T08:40:22;99660.66;;;20.30;63.04
43844;BME280;29497;48.046;7.864;2022-10-31T08:42:55;99660.38;;;20.33;63.65
43844;BME280;29497;48.046;7.864;2022-10-31T08:45:22;99659.53;;;20.32;64.35
43844;BME280;29497;48.046;7.864;2022-10-31T08:47:49;99662.03;;;20.34;64.56
43844;BME280;29497;48.046;7.864;2022-10-31T08:50:16;99663.72;;;20.35;64.47
43844;BME280;29497;48.046;7.864;2022-10-31T08:52:42;99659.28;;;20.35;64.88
43844;BME280;29497;48.046;7.864;2022-10-31T08:55:09;99653.16;;;20.35;64.51
43844;BME280;29497;48.046;7.864;2022-10-31T08:57:36;99647.44;;;20.30;64.35
43844;BME280;29497;48.046;7.864;2022-10-31T09:00:04;99646.91;;;20.36;64.67
43844;BME280;29497;48.046;7.864;2022-10-31T09:02:30;99646.09;;;20.35;64.42
43844;BME280;29497;48.046;7.864;2022-10-31T09:04:57;99643.44;;;20.35;64.16
43844;BME280;29497;48.046;7.864;2022-10-31T09:07:23;99644.94;;;20.38;64.31
43844;BME280;29497;48.046;7.864;2022-10-31T09:09:50;99638.69;;;20.39;64.40
43844;BME280;29497;48.046;7.864;2022-10-31T09:12:16;99637.03;;;20.38;64.35
43844;BME280;29497;48.046;7.864;2022-10-31T09:14:44;99642.03;;;20.41;64.46
43844;BME280;29497;48.046;7.864;2022-10-31T09:17:11;99642.84;;;20.42;64.49
43844;BME280;29497;48.046;7.864;2022-10-31T09:21:43;99631.47;;;20.41;64.64
43844;BME280;29497;48.046;7.864;2022-10-31T09:24:10;99614.53;;;20.44;64.53
43844;BME280;29497;48.046;7.864;2022-10-31T09:26:36;99617.03;;;20.45;64.57
43844;BME280;29497;48.046;7.864;2022-10-31T09:29:03;99617.03;;;20.45;64.55
43844;BME280;29497;48.046;7.864;2022-10-31T09:31:29;99611.75;;;20.45;64.56
43844;BME280;29497;48.046;7.864;2022-10-31T09:33:56;99601.47;;;20.42;64.65
43844;BME280;29497;48.046;7.864;2022-10-31T09:36:23;99605.63;;;20.45;64.57
43844;BME280;29497;48.046;7.864;2022-10-31T09:38:51;99606.75;;;20.42;64.62
43844;BME280;29497;48.046;7.864;2022-10-31T09:41:24;99604.81;;;20.44;64.65
43844;BME280;29497;48.046;7.864;2022-10-31T09:43:59;99607.16;;;20.47;64.61
43844;BME280;29497;48.046;7.864;2022-10-31T09:46:34;99600.88;;;20.48;64.78
43844;BME280;29497;48.046;7.864;2022-10-31T09:49:25;99604.53;;;20.47;64.67
43844;BME280;29497;48.046;7.864;2022-10-31T09:52:00;99603.50;;;20.48;64.91
43844;BME280;29497;48.046;7.864;2022-10-31T09:54:35;99604.53;;;20.47;64.69
43844;BME280;29497;48.046;7.864;2022-10-31T09:57:05;99607.16;;;20.47;64.71
43844;BME280;29497;48.046;7.864;2022-10-31T09:59:38;99607.81;;;20.49;64.66
43844;BME280;29497;48.046;7.864;2022-10-31T10:02:12;99610.31;;;20.51;64.74
43844;BME280;29497;48.046;7.864;2022-10-31T10:04:44;99606.00;;;20.50;64.61
43844;BME280;29497;48.046;7.864;2022-10-31T10:07:21;99603.38;;;20.50;64.61
43844;BME280;29497;48.046;7.864;2022-10-31T10:09:50;99607.81;;;20.49;64.89
43844;BME280;29497;48.046;7.864;2022-10-31T10:12:25;99606.84;;;20.50;64.64
43844;BME280;29497;48.046;7.864;2022-10-31T10:15:24;99602.25;;;20.52;64.53
43844;BME280;29497;48.046;7.864;2022-10-31T10:18:04;99600.59;;;20.51;65.00
43844;BME280;29497;48.046;7.864;2022-10-31T10:20:38;99596.97;;;20.52;64.69
43844;BME280;29497;48.046;7.864;2022-10-31T10:23:24;99588.09;;;20.53;64.65
43844;BME280;29497;48.046;7.864;2022-10-31T10:26:02;99584.47;;;20.54;64.47
43844;BME280;29497;48.046;7.864;2022-10-31T10:28:38;99586.13;;;20.55;64.42
43844;BME280;29497;48.046;7.864;2022-10-31T10:31:09;99586.13;;;20.55;64.60
43844;BME280;29497;48.046;7.864;2022-10-31T10:33:40;99587.78;;;20.56;64.40
43844;BME280;29497;48.046;7.864;2022-10-31T10:36:12;99590.25;;;20.58;64.68
43844;BME280;29497;48.046;7.864;2022-10-31T10:38:49;99594.72;;;20.57;64.42
43844;BME280;29497;48.046;7.864;2022-10-31T10:41:20;99603.31;;;20.59;64.19
43844;BME280;29497;48.046;7.864;2022-10-31T10:43:48;99602.34;;;20.60;64.32
43844;BME280;29497;48.046;7.864;2022-10-31T10:46:19;99598.03;;;20.59;64.23
43844;BME280;29497;48.046;7.864;2022-10-31T10:49:14;99603.31;;;20.59;64.04
43844;BME280;29497;48.046;7.864;2022-10-31T10:51:44;99601.50;;;20.60;64.22
43844;BME280;29497;48.046;7.864;2022-10-31T10:57:07;99580.41;;;20.60;64.24
43844;BME280;29497;48.046;7.864;2022-10-31T10:59:37;99587.47;;;20.59;64.11
43844;BME280;29497;48.046;7.864;2022-10-31T11:02:16;99575.25;;;20.58;64.14
43844;BME280;29497;48.046;7.864;2022-10-31T11:04:43;99578.88;;;20.57;63.67
43844;BME280;29497;48.046;7.864;2022-10-31T11:07:12;99583.19;;;20.58;63.71
43844;BME280;29497;48.046;7.864;2022-10-31T11:09:38;99585.81;;;20.58;63.64
43844;BME280;29497;48.046;7.864;2022-10-31T11:12:10;99576.91;;;20.59;63.84
43844;BME280;29497;48.046;7.864;2022-10-31T11:14:47;99576.91;;;20.59;63.70
43844;BME280;29497;48.046;7.864;2022-10-31T11:17:29;99580.53;;;20.58;63.69
43844;BME280;29497;48.046;7.864;2022-10-31T11:20:02;99578.88;;;20.57;64.04
43844;BME280;29497;48.046;7.864;2022-10-31T11:22:30;99567.50;;;20.57;63.43
43844;BME280;29497;48.046;7.864;2022-10-31T11:24:56;99554.47;;;20.55;63.18
43844;BME280;29497;48.046;7.864;2022-10-31T11:27:25;99535.16;;;20.55;62.89
43844;BME280;29497;48.046;7.864;2022-10-31T11:29:52;99527.38;;;20.53;62.90
43844;BME280;29497;48.046;7.864;2022-10-31T11:32:29;99525.56;;;20.54;62.49
43844;BME280;29497;48.046;7.864;2022-10-31T11:34:59;99512.53;;;20.52;62.67
43844;BME280;29497;48.046;7.864;2022-10-31T11:37:28;99507.25;;;20.52;62.58
43844;BME280;29497;48.046;7.864;2022-10-31T11:39:57;99511.56;;;20.53;62.71
43844;BME280;29497;48.046;7.864;2022-10-31T11:42:27;99510.88;;;20.51;62.57
43844;BME280;29497;48.046;7.864;2022-10-31T11:44:55;99501.97;;;20.52;62.45
43844;BME280;29497;48.046;7.864;2022-10-31T11:47:26;99492.25;;;20.53;62.61
43844;BME280;29497;48.046;7.864;2022-10-31T11:49:54;99488.09;;;20.50;62.43
43844;BME280;29497;48.046;7.864;2022-10-31T11:52:23;99481.97;;;20.50;62.53
43844;BME280;29497;48.046;7.864;2022-10-31T11:54:53;99478.50;;;20.49;62.62
43844;BME280;29497;48.046;7.864;2022-10-31T11:57:25;99475.88;;;20.49;62.79
43844;BME280;29497;48.046;7.864;2022-10-31T11:59:55;99463.50;;;20.50;62.79
43844;BME280;29497;48.046;7.864;2022-10-31T12:02:22;99456.44;;;20.50;63.14
43844;BME280;29497;48.046;7.864;2022-10-31T12:04:56;99445.88;;;20.50;63.10
43844;BME280;29497;48.046;7.864;2022-10-31T12:07:25;99450.78;;;20.45;63.30
43844;BME280;29497;48.046;7.864;2022-10-31T12:09:52;99459.69;;;20.44;62.90
43844;BME280;29497;48.046;7.864;2022-10-31T12:12:39;99457.19;;;20.43;62.58
43844;BME280;29497;48.046;7.864;2022-10-31T12:15:31;99451.47;;;20.47;62.58
43844;BME280;29497;48.046;7.864;2022-10-31T12:18:26;99463.66;;;20.48;62.94
43844;BME280;29497;48.046;7.864;2022-10-31T12:21:06;99448.00;;;20.47;63.09
43844;BME280;29497;48.046;7.864;2022-10-31T12:23:43;99445.19;;;20.48;63.00
43844;BME280;29497;48.046;7.864;2022-10-31T12:26:17;99456.44;;;20.50;63.04
43844;BME280;29497;48.046;7.864;2022-10-31T12:28:56;99445.88;;;20.50;62.98
43844;BME280;29497;48.046;7.864;2022-10-31T12:31:37;99447.81;;;20.48;63.10
43844;BME280;29497;48.046;7.864;2022-10-31T12:34:33;99445.03;;;20.50;63.55
43844;BME280;29497;48.046;7.864;2022-10-31T12:37:10;99430.03;;;20.50;63.42
43844;BME280;29497;48.046;7.864;2022-10-31T12:39:44;99443.09;;;20.52;63.40
43844;BME280;29497;48.046;7.864;2022-10-31T12:42:21;99435.84;;;20.54;63.69
43844;BME280;29497;48.046;7.864;2022-10-31T12:45:04;99424.19;;;20.56;64.11
43844;BME280;29497;48.046;7.864;2022-10-31T12:47:57;99436.34;;;20.57;63.90
43844;BME280;29497;48.046;7.864;2022-10-31T12:50:39;99422.38;;;20.57;64.01
43844;BME280;29497;48.046;7.864;2022-10-31T12:53:24;99424.19;;;20.56;64.14
43844;BME280;29497;48.046;7.864;2022-10-31T12:56:05;99420.84;;;20.54;64.08
43844;BME280;29497;48.046;7.864;2022-10-31T12:58:36;99406.00;;;20.53;64.33
43844;BME280;29497;48.046;7.864;2022-10-31T13:01:09;99393.09;;;20.50;64.12
43844;BME280;29497;48.046;7.864;2022-10-31T13:03:44;99394.22;;;20.48;64.23
43844;BME280;29497;48.046;7.864;2022-10-31T13:06:16;99397.34;;;20.43;64.20
43844;BME280;29497;48.046;7.864;2022-10-31T13:08:47;99390.41;;;20.42;64.32
43844;BME280;29497;48.046;7.864;2022-10-31T13:11:18;99392.06;;;20.43;64.22
43844;BME280;29497;48.046;7.864;2022-10-31T13:13:53;99388.59;;;20.43;64.38
43844;BME280;29497;48.046;7.864;2022-10-31T13:16:25;99383.16;;;20.44;64.12
43844;BME280;29497;48.046;7.864;2022-10-31T13:18:55;99390.78;;;20.47;63.91
43844;BME280;29497;48.046;7.864;2022-10-31T13:21:27;99384.69;;;20.47;64.18